createdAt,value
2017-10-01T00:00:23.612Z,13.50
2017-10-01T00:02:50.490Z,13.50
2017-10-01T00:05:17.405Z,13.50
2017-10-01T00:07:44.345Z,13.60
2017-10-01T00:10:11.293Z,13.50
2017-10-01T00:12:38.179Z,13.50
2017-10-01T00:15:05.188Z,13.60
2017-10-01T00:17:32.068Z,13.60
2017-10-01T00:19:58.957Z,13.40
2017-10-01T00:22:26.336Z,13.40
2017-10-01T00:24:53.217Z,13.40
2017-10-01T00:27:20.130Z,13.50
2017-10-01T00:29:47.045Z,13.50
2017-10-01T00:32:13.927Z,13.50
2017-10-01T00:34:41.202Z,13.30
2017-10-01T00:37:08.159Z,13.30
2017-10-01T00:39:35.038Z,13.30
2017-10-01T00:42:01.916Z,13.20
2017-10-01T00:44:29.237Z,13.00
2017-10-01T00:46:56.121Z,13.00
2017-10-01T00:49:23.396Z,13.10
2017-10-01T00:51:50.305Z,13.10
2017-10-01T00:54:17.181Z,13.20
2017-10-01T00:56:44.062Z,13.10
2017-10-01T00:59:10.982Z,13.00
2017-10-01T01:01:37.861Z,13.00
2017-10-01T01:04:04.744Z,12.90
2017-10-01T01:06:32.065Z,12.70
2017-10-01T01:08:58.950Z,12.70
2017-10-01T01:11:26.239Z,12.80
2017-10-01T01:13:53.150Z,12.80
2017-10-01T01:16:20.494Z,12.80
2017-10-01T01:18:47.382Z,12.80
2017-10-01T01:21:14.308Z,12.60
2017-10-01T01:23:41.596Z,12.50
2017-10-01T01:26:08.473Z,12.50
2017-10-01T01:28:35.386Z,12.50
2017-10-01T01:31:02.269Z,12.50
2017-10-01T01:33:29.150Z,12.50
2017-10-01T01:35:56.065Z,12.50
2017-10-01T01:38:22.945Z,12.50
2017-10-01T01:40:49.829Z,12.60
2017-10-01T01:43:16.789Z,12.60
2017-10-01T01:45:43.675Z,12.50
2017-10-01T01:48:10.561Z,12.40
2017-10-01T01:50:37.491Z,12.30
2017-10-01T01:53:04.390Z,12.40
2017-10-01T01:55:31.729Z,12.40
2017-10-01T01:57:58.645Z,12.40
2017-10-01T02:00:25.529Z,12.40
2017-10-01T02:02:52.409Z,12.40
2017-10-01T02:05:19.330Z,12.40
2017-10-01T02:07:46.610Z,12.40
2017-10-01T02:10:13.501Z,12.40
2017-10-01T02:12:40.440Z,12.30
2017-10-01T02:15:07.325Z,12.20
2017-10-01T02:17:34.613Z,12.10
2017-10-01T02:20:01.525Z,12.10
2017-10-01T02:22:28.805Z,12.10
2017-10-01T02:24:55.685Z,12.10
2017-10-01T02:27:22.697Z,12.20
2017-10-01T02:29:49.572Z,12.30
2017-10-01T02:32:16.457Z,12.30
2017-10-01T02:34:43.782Z,12.20
2017-10-01T02:37:10.670Z,12.20
2017-10-01T02:39:37.951Z,12.00
2017-10-01T02:42:04.859Z,12.00
2017-10-01T02:44:31.742Z,11.90
2017-10-01T02:46:58.625Z,11.80
2017-10-01T02:49:25.550Z,11.80
2017-10-01T02:51:52.433Z,11.70
2017-10-01T02:54:19.721Z,11.60
2017-10-01T02:56:46.629Z,11.60
2017-10-01T02:59:13.573Z,11.60
2017-10-01T03:01:40.453Z,11.70
2017-10-01T03:04:07.373Z,11.70
2017-10-01T03:06:34.644Z,11.60
2017-10-01T03:09:01.529Z,11.60
2017-10-01T03:11:28.446Z,11.50
2017-10-01T03:13:55.329Z,11.40
2017-10-01T03:16:22.618Z,11.50
2017-10-01T03:18:49.531Z,11.40
2017-10-01T03:21:16.419Z,11.40
2017-10-01T03:23:43.297Z,11.40
2017-10-01T03:26:10.227Z,11.30
2017-10-01T03:28:37.110Z,11.20
2017-10-01T03:31:04.000Z,11.20
2017-10-01T03:33:30.929Z,11.20
2017-10-01T03:35:57.810Z,11.20
2017-10-01T03:38:24.701Z,11.10
2017-10-01T03:40:52.009Z,11.20
2017-10-01T03:43:18.888Z,11.20
2017-10-01T03:45:45.782Z,11.10
2017-10-01T03:48:12.694Z,11.00
2017-10-01T03:50:39.975Z,11.10
2017-10-01T03:53:06.859Z,11.10
2017-10-01T03:55:33.781Z,11.20
2017-10-01T03:58:00.665Z,11.20
2017-10-01T04:00:27.549Z,11.20
2017-10-01T04:02:54.479Z,11.20
2017-10-01T04:05:21.754Z,11.20
2017-10-01T04:07:48.653Z,11.20
2017-10-01T04:10:15.602Z,11.20
2017-10-01T04:12:42.553Z,11.00
2017-10-01T04:15:09.433Z,10.80
2017-10-01T04:17:36.437Z,10.70
2017-10-01T04:20:03.322Z,10.80
2017-10-01T04:22:30.230Z,10.80
2017-10-01T04:24:57.589Z,10.70
2017-10-01T04:27:24.538Z,10.70
2017-10-01T04:29:51.486Z,10.60
2017-10-01T04:32:18.439Z,10.60
2017-10-01T04:34:45.792Z,10.60
2017-10-01T04:37:13.141Z,10.70
2017-10-01T04:39:40.085Z,10.70
2017-10-01T04:42:06.980Z,10.70
2017-10-01T04:44:33.868Z,10.70
2017-10-01T04:47:00.792Z,10.50
2017-10-01T04:49:27.674Z,10.50
2017-10-01T04:51:54.556Z,10.50
2017-10-01T04:54:21.490Z,10.50
2017-10-01T04:56:48.813Z,10.50
2017-10-01T04:59:15.690Z,10.50
2017-10-01T05:01:42.608Z,10.60
2017-10-01T05:04:09.491Z,10.60
2017-10-01T05:06:36.395Z,10.70
2017-10-01T05:09:03.322Z,10.80
2017-10-01T05:11:30.284Z,10.90
2017-10-01T05:13:57.174Z,10.90
2017-10-01T05:16:24.177Z,10.90
2017-10-01T05:18:51.130Z,11.00
2017-10-01T05:21:18.017Z,10.90
2017-10-01T05:23:45.017Z,10.70
2017-10-01T05:26:11.897Z,10.50
2017-10-01T05:28:38.778Z,10.40
2017-10-01T05:31:05.764Z,10.30
2017-10-01T05:33:33.365Z,10.20
2017-10-01T05:36:00.280Z,10.20
2017-10-01T05:38:27.566Z,10.30
2017-10-01T05:40:54.465Z,10.30
2017-10-01T05:43:21.389Z,10.40
2017-10-01T05:45:48.277Z,10.60
2017-10-01T05:48:15.613Z,10.70
2017-10-01T05:50:42.538Z,10.70
2017-10-01T05:53:09.505Z,10.70
2017-10-01T05:55:36.448Z,10.60
2017-10-01T05:58:03.397Z,10.60
2017-10-01T06:00:30.279Z,10.50
2017-10-01T06:02:57.199Z,10.40
2017-10-01T06:05:24.521Z,10.10
2017-10-01T06:07:51.485Z,10.10
2017-10-01T06:10:18.397Z,10.10
2017-10-01T06:12:45.338Z,10.00
2017-10-01T06:15:12.224Z,9.90
2017-10-01T06:17:39.114Z,9.80
2017-10-01T06:20:06.117Z,9.80
2017-10-01T06:22:32.997Z,9.90
2017-10-01T06:24:59.877Z,10.20
2017-10-01T06:27:26.801Z,10.40
2017-10-01T06:29:53.700Z,10.40
2017-10-01T06:32:20.587Z,10.40
2017-10-01T06:34:47.505Z,10.50
2017-10-01T06:37:14.845Z,10.60
2017-10-01T06:39:41.732Z,10.60
2017-10-01T06:42:08.666Z,10.60
2017-10-01T06:44:35.945Z,10.60
2017-10-01T06:47:02.825Z,10.60
2017-10-01T06:49:29.787Z,10.70
2017-10-01T06:51:56.780Z,10.60
2017-10-01T06:54:23.669Z,10.60
2017-10-01T06:56:50.601Z,10.80
2017-10-01T06:59:17.494Z,11.00
2017-10-01T07:01:44.777Z,11.30
2017-10-01T07:04:11.701Z,11.30
2017-10-01T07:06:41.413Z,11.40
2017-10-01T07:09:08.314Z,11.60
2017-10-01T07:11:35.300Z,11.70
2017-10-01T07:14:02.629Z,12.00
2017-10-01T07:16:29.526Z,12.00
2017-10-01T07:18:56.445Z,12.20
2017-10-01T07:21:23.770Z,11.90
2017-10-01T07:23:50.727Z,11.90
2017-10-01T07:26:17.649Z,11.50
2017-10-01T07:28:44.541Z,11.30
2017-10-01T07:31:11.871Z,11.00
2017-10-01T07:33:38.813Z,11.00
2017-10-01T07:36:05.710Z,10.80
2017-10-01T07:38:32.589Z,10.70
2017-10-01T07:40:59.526Z,10.70
2017-10-01T07:43:26.497Z,10.90
2017-10-01T07:45:53.398Z,11.10
2017-10-01T07:48:20.333Z,11.40
2017-10-01T07:50:47.226Z,11.70
2017-10-01T07:53:14.116Z,12.00
2017-10-01T07:55:41.129Z,12.20
2017-10-01T07:58:08.077Z,12.40
2017-10-01T08:00:34.961Z,12.50
2017-10-01T08:03:01.881Z,12.60
2017-10-01T08:05:29.153Z,12.90
2017-10-01T08:07:56.069Z,12.90
2017-10-01T08:10:23.009Z,12.90
2017-10-01T08:12:49.952Z,12.90
2017-10-01T08:15:16.913Z,13.00
2017-10-01T08:17:43.854Z,13.10
2017-10-01T08:20:10.742Z,13.10
2017-10-01T08:22:37.625Z,13.20
2017-10-01T08:25:04.689Z,13.20
2017-10-01T08:27:31.661Z,13.30
2017-10-01T08:29:58.993Z,13.20
2017-10-01T08:32:25.948Z,13.20
2017-10-01T08:34:53.301Z,13.20
2017-10-01T08:37:20.190Z,13.20
2017-10-01T08:39:47.194Z,13.30
2017-10-01T08:42:14.137Z,13.40
2017-10-01T08:44:41.100Z,13.40
2017-10-01T08:47:08.444Z,12.80
2017-10-01T08:49:35.388Z,12.80
2017-10-01T08:52:02.273Z,12.30
2017-10-01T08:54:29.201Z,12.30
2017-10-01T08:56:56.479Z,12.00
2017-10-01T08:59:23.384Z,12.00
2017-10-01T09:01:50.353Z,11.70
2017-10-01T09:04:17.246Z,11.70
2017-10-01T09:06:44.133Z,11.60
2017-10-01T09:09:11.445Z,11.60
2017-10-01T09:11:38.336Z,11.60
2017-10-01T09:14:05.615Z,11.70
2017-10-01T09:16:32.529Z,11.70
2017-10-01T09:18:59.873Z,11.10
2017-10-01T09:21:26.762Z,11.10
2017-10-01T09:23:53.679Z,11.00
2017-10-01T09:26:21.017Z,11.00
2017-10-01T09:28:47.901Z,11.00
2017-10-01T09:31:14.911Z,11.20
2017-10-01T09:33:41.789Z,11.30
2017-10-01T09:36:08.697Z,11.40
2017-10-01T09:38:35.616Z,11.60
2017-10-01T09:41:02.499Z,12.00
2017-10-01T09:43:29.782Z,12.20
2017-10-01T09:45:56.702Z,12.20
2017-10-01T09:48:24.046Z,12.30
2017-10-01T09:50:50.984Z,12.30
2017-10-01T09:53:17.918Z,12.50
2017-10-01T09:55:44.885Z,13.00
2017-10-01T09:58:11.828Z,13.20
2017-10-01T10:00:38.822Z,13.10
2017-10-01T10:03:05.777Z,12.80
2017-10-01T10:05:32.685Z,12.40
2017-10-01T10:08:00.073Z,12.00
2017-10-01T10:10:27.019Z,12.00
2017-10-01T10:12:53.950Z,12.10
2017-10-01T10:15:20.911Z,12.10
2017-10-01T10:17:47.789Z,12.00
2017-10-01T10:20:14.780Z,12.00
2017-10-01T10:22:42.092Z,13.00
2017-10-01T10:25:09.075Z,13.00
2017-10-01T10:27:36.366Z,13.40
2017-10-01T10:30:03.280Z,13.40
2017-10-01T10:32:30.627Z,13.30
2017-10-01T10:34:57.580Z,13.30
2017-10-01T10:37:24.890Z,13.00
2017-10-01T10:39:51.861Z,13.00
2017-10-01T10:42:18.758Z,13.00
2017-10-01T10:44:45.748Z,13.00
2017-10-01T10:47:12.703Z,12.80
2017-10-01T10:49:39.596Z,12.80
2017-10-01T10:52:06.509Z,13.10
2017-10-01T10:54:33.841Z,13.40
2017-10-01T10:57:00.717Z,13.40
2017-10-01T10:59:28.039Z,13.70
2017-10-01T11:01:54.995Z,13.70
2017-10-01T11:04:21.878Z,13.80
2017-10-01T11:06:48.814Z,14.10
2017-10-01T11:09:16.117Z,14.50
2017-10-01T11:11:43.090Z,14.50
2017-10-01T11:14:10.050Z,14.70
2017-10-01T11:16:37.392Z,14.40
2017-10-01T11:19:04.283Z,14.40
2017-10-01T11:21:31.214Z,14.40
2017-10-01T11:23:58.102Z,14.70
2017-10-01T11:26:24.977Z,14.90
2017-10-01T11:28:51.917Z,15.10
2017-10-01T11:31:18.809Z,15.50
2017-10-01T11:33:45.721Z,15.40
2017-10-01T11:36:13.036Z,14.80
2017-10-01T11:38:40.021Z,14.80
2017-10-01T11:41:07.297Z,14.60
2017-10-01T11:43:34.309Z,14.60
2017-10-01T11:46:01.262Z,14.70
2017-10-01T11:48:28.219Z,14.70
2017-10-01T11:50:55.565Z,14.40
2017-10-01T11:53:22.480Z,14.40
2017-10-01T11:55:49.459Z,14.40
2017-10-01T11:58:16.398Z,14.60
2017-10-01T12:00:43.287Z,15.00
2017-10-01T12:03:10.171Z,15.00
2017-10-01T12:05:37.090Z,15.10
2017-10-01T12:08:03.985Z,15.30
2017-10-01T12:10:30.881Z,15.40
2017-10-01T12:12:57.801Z,15.50
2017-10-01T12:15:25.129Z,16.10
2017-10-01T12:17:52.022Z,16.10
2017-10-01T12:20:18.969Z,16.30
2017-10-01T12:22:45.856Z,16.50
2017-10-01T12:25:12.817Z,16.40
2017-10-01T12:27:39.757Z,16.30
2017-10-01T12:30:06.658Z,16.20
2017-10-01T12:32:33.542Z,15.90
2017-10-01T12:35:00.479Z,15.90
2017-10-01T12:37:27.384Z,16.10
2017-10-01T12:39:54.288Z,16.20
2017-10-01T12:42:21.216Z,16.40
2017-10-01T12:44:48.181Z,16.60
2017-10-01T12:47:15.125Z,16.80
2017-10-01T12:49:42.077Z,16.80
2017-10-01T12:52:09.021Z,16.70
2017-10-01T12:54:35.911Z,16.80
2017-10-01T12:57:02.826Z,16.90
2017-10-01T12:59:30.106Z,17.20
2017-10-01T13:01:57.021Z,17.20
2017-10-01T13:04:24.361Z,17.50
2017-10-01T13:06:51.308Z,17.50
2017-10-01T13:09:18.189Z,17.60
2017-10-01T13:11:45.109Z,17.70
2017-10-01T13:14:12.475Z,17.80
2017-10-01T13:16:39.762Z,17.70
2017-10-01T13:19:06.762Z,17.70
2017-10-01T13:21:33.640Z,17.50
2017-10-01T13:24:00.521Z,17.30
2017-10-01T13:26:27.496Z,17.30
2017-10-01T13:28:54.380Z,17.20
2017-10-01T13:31:21.260Z,17.30
2017-10-01T13:33:48.233Z,17.30
2017-10-01T13:36:15.185Z,17.40
2017-10-01T13:38:42.461Z,17.50
2017-10-01T13:41:09.782Z,17.60
2017-10-01T13:43:36.667Z,17.60
2017-10-01T13:46:03.985Z,17.70
2017-10-01T13:48:30.904Z,17.70
2017-10-01T13:50:57.786Z,17.70
2017-10-01T13:53:24.725Z,17.70
2017-10-01T13:55:51.658Z,17.70
2017-10-01T13:58:18.544Z,17.70
2017-10-01T14:00:45.869Z,17.80
2017-10-01T14:03:12.791Z,17.80
2017-10-01T14:05:39.668Z,17.90
2017-10-01T14:08:06.609Z,18.00
2017-10-01T14:10:33.619Z,18.10
2017-10-01T14:13:00.601Z,18.10
2017-10-01T14:15:27.490Z,18.10
2017-10-01T14:17:54.493Z,18.10
2017-10-01T14:20:21.380Z,18.20
2017-10-01T14:22:48.260Z,18.30
2017-10-01T14:25:15.235Z,18.30
2017-10-01T14:27:42.210Z,18.30
2017-10-01T14:30:09.487Z,18.30
2017-10-01T14:32:36.407Z,18.30
2017-10-01T14:35:03.681Z,18.30
2017-10-01T14:37:30.567Z,18.30
2017-10-01T14:39:57.488Z,18.20
2017-10-01T14:42:24.390Z,18.20
2017-10-01T14:44:51.676Z,18.00
2017-10-01T14:47:18.601Z,18.00
2017-10-01T14:49:45.930Z,17.90
2017-10-01T14:52:12.817Z,17.90
2017-10-01T14:54:39.735Z,17.90
2017-10-01T14:57:07.010Z,17.80
2017-10-01T14:59:33.890Z,17.80
2017-10-01T15:02:00.868Z,17.80
2017-10-01T15:04:27.754Z,17.80
2017-10-01T15:06:54.667Z,17.70
2017-10-01T15:09:22.018Z,17.70
2017-10-01T15:11:48.961Z,17.70
2017-10-01T15:14:15.850Z,17.70
2017-10-01T15:16:42.849Z,17.80
2017-10-01T15:19:09.797Z,17.80
2017-10-01T15:21:36.681Z,17.90
2017-10-01T15:24:03.593Z,17.90
2017-10-01T15:26:30.505Z,17.90
2017-10-01T15:28:57.388Z,18.10
2017-10-01T15:31:24.362Z,18.10
2017-10-01T15:33:51.273Z,18.20
2017-10-01T15:36:18.154Z,18.10
2017-10-01T15:38:45.163Z,18.10
2017-10-01T15:41:12.058Z,18.00
2017-10-01T15:43:38.956Z,18.00
2017-10-01T15:46:05.873Z,17.90
2017-10-01T15:48:32.760Z,17.80
2017-10-01T15:51:00.102Z,17.80
2017-10-01T15:53:27.065Z,17.80
2017-10-01T15:55:54.350Z,17.90
2017-10-01T15:58:21.230Z,17.90
2017-10-01T16:00:48.205Z,17.80
2017-10-01T16:03:15.130Z,17.80
2017-10-01T16:05:42.089Z,17.80
2017-10-01T16:08:09.009Z,17.80
2017-10-01T16:10:35.946Z,17.80
2017-10-01T16:13:02.934Z,17.80
2017-10-01T16:15:29.877Z,17.70
2017-10-01T16:17:56.820Z,17.70
2017-10-01T16:20:23.704Z,17.80
2017-10-01T16:22:50.721Z,17.70
2017-10-01T16:25:17.605Z,17.60
2017-10-01T16:27:44.496Z,17.60
2017-10-01T16:30:11.462Z,17.60
2017-10-01T16:32:38.737Z,17.50
2017-10-01T16:35:05.655Z,17.50
2017-10-01T16:37:32.588Z,17.40
2017-10-01T16:39:59.474Z,17.30
2017-10-01T16:42:26.377Z,17.30
2017-10-01T16:44:53.339Z,17.20
2017-10-01T16:47:20.228Z,17.20
2017-10-01T16:49:47.125Z,17.10
2017-10-01T16:52:14.053Z,17.00
2017-10-01T16:54:41.025Z,17.00
2017-10-01T16:57:07.920Z,16.90
2017-10-01T16:59:34.841Z,16.80
2017-10-01T17:02:01.758Z,16.70
2017-10-01T17:04:28.713Z,16.60
2017-10-01T17:06:55.645Z,16.50
2017-10-01T17:09:22.598Z,16.40
2017-10-01T17:11:49.488Z,16.40
2017-10-01T17:14:16.484Z,16.20
2017-10-01T17:16:43.482Z,16.10
2017-10-01T17:19:10.502Z,16.00
2017-10-01T17:21:38.330Z,15.80
2017-10-01T17:24:05.259Z,15.90
2017-10-01T17:26:32.175Z,15.80
2017-10-01T17:28:59.070Z,15.60
2017-10-01T17:31:26.006Z,15.50
2017-10-01T17:33:52.976Z,15.50
2017-10-01T17:36:19.926Z,15.50
2017-10-01T17:38:46.877Z,15.50
2017-10-01T17:41:13.817Z,15.40
2017-10-01T17:43:40.765Z,15.60
2017-10-01T17:46:07.662Z,15.70
2017-10-01T17:48:34.589Z,15.70
2017-10-01T17:51:01.489Z,15.60
2017-10-01T17:53:28.451Z,15.50
2017-10-01T17:55:55.332Z,15.40
2017-10-01T17:58:22.249Z,15.40
2017-10-01T18:00:49.200Z,15.40
2017-10-01T18:03:16.550Z,15.40
2017-10-01T18:05:43.504Z,15.50
2017-10-01T18:08:10.785Z,15.40
2017-10-01T18:10:37.693Z,15.40
2017-10-01T18:13:04.609Z,15.40
2017-10-01T18:15:31.496Z,15.40
2017-10-01T18:17:58.841Z,15.40
2017-10-01T18:20:25.787Z,15.40
2017-10-01T18:22:52.753Z,15.30
2017-10-01T18:25:20.033Z,15.20
2017-10-01T18:27:46.924Z,15.30
2017-10-01T18:30:13.841Z,15.20
2017-10-01T18:32:40.773Z,15.20
2017-10-01T18:35:07.673Z,15.20
2017-10-01T18:37:35.027Z,15.10
2017-10-01T18:40:01.966Z,15.10
2017-10-01T18:42:28.922Z,15.10
2017-10-01T18:44:55.865Z,15.00
2017-10-01T18:47:22.789Z,15.00
2017-10-01T18:49:49.673Z,15.10
2017-10-01T18:52:16.993Z,15.00
2017-10-01T18:54:43.962Z,15.00
2017-10-01T18:57:11.269Z,14.90
2017-10-01T18:59:38.257Z,14.90
2017-10-01T19:02:05.233Z,14.90
2017-10-01T19:04:32.533Z,14.80
2017-10-01T19:06:59.424Z,14.80
2017-10-01T19:09:26.807Z,14.80
2017-10-01T19:11:53.694Z,14.80
2017-10-01T19:14:20.658Z,14.80
2017-10-01T19:16:47.578Z,14.80
2017-10-01T19:19:14.465Z,14.90
2017-10-01T19:21:41.741Z,14.60
2017-10-01T19:24:08.757Z,14.60
2017-10-01T19:26:36.125Z,14.50
2017-10-01T19:29:03.410Z,14.50
2017-10-01T19:31:30.437Z,14.50
2017-10-01T19:33:57.329Z,14.50
2017-10-01T19:36:24.222Z,14.60
2017-10-01T19:38:51.557Z,14.60
2017-10-01T19:41:18.441Z,14.60
2017-10-01T19:43:45.325Z,14.40
2017-10-01T19:46:12.260Z,14.40
2017-10-01T19:48:39.154Z,14.40
2017-10-01T19:51:06.434Z,14.40
2017-10-01T19:53:33.436Z,14.40
2017-10-01T19:56:00.385Z,14.40
2017-10-01T19:58:27.277Z,14.50
2017-10-01T20:00:54.199Z,14.60
2017-10-01T20:03:21.477Z,14.60
2017-10-01T20:05:48.374Z,14.60
2017-10-01T20:08:15.331Z,14.60
2017-10-01T20:10:42.675Z,14.50
2017-10-01T20:13:09.577Z,14.50
2017-10-01T20:15:36.570Z,14.60
2017-10-01T20:18:03.488Z,14.60
2017-10-01T20:20:30.472Z,14.60
2017-10-01T20:22:57.434Z,14.50
2017-10-01T20:25:24.372Z,14.60
2017-10-01T20:27:51.653Z,14.50
2017-10-01T20:30:18.578Z,14.50
2017-10-01T20:32:45.957Z,14.50
2017-10-01T20:35:12.837Z,14.50
2017-10-01T20:37:39.757Z,14.60
2017-10-01T20:40:06.666Z,14.60
2017-10-01T20:42:33.947Z,14.60
2017-10-01T20:45:00.880Z,14.60
2017-10-01T20:47:28.163Z,14.40
2017-10-01T20:49:55.149Z,14.40
2017-10-01T20:52:22.077Z,14.40
2017-10-01T20:54:48.967Z,14.40
2017-10-01T20:57:16.329Z,14.40
2017-10-01T20:59:43.660Z,14.50
2017-10-01T21:02:10.609Z,14.50
2017-10-01T21:04:37.551Z,14.60
2017-10-01T21:07:04.496Z,14.60
2017-10-01T21:09:31.390Z,14.50
2017-10-01T21:11:58.268Z,14.40
2017-10-01T21:14:25.205Z,14.50
2017-10-01T21:16:52.095Z,14.40
2017-10-01T21:19:19.461Z,14.40
2017-10-01T21:21:46.375Z,14.40
2017-10-01T21:24:13.325Z,14.50
2017-10-01T21:26:40.269Z,14.40
2017-10-01T21:29:07.190Z,14.40
2017-10-01T21:31:34.166Z,14.40
2017-10-01T21:34:01.115Z,14.40
2017-10-01T21:36:28.052Z,14.40
2017-10-01T21:38:54.945Z,14.40
2017-10-01T21:41:21.825Z,14.40
2017-10-01T21:43:48.788Z,14.40
2017-10-01T21:46:15.681Z,14.40
2017-10-01T21:48:42.569Z,14.30
2017-10-01T21:51:09.525Z,14.30
2017-10-01T21:53:36.419Z,14.40
2017-10-01T21:56:03.302Z,14.40
2017-10-01T21:58:30.269Z,14.40
2017-10-01T22:00:57.154Z,14.40
2017-10-01T22:03:24.033Z,14.40
2017-10-01T22:05:50.957Z,14.50
2017-10-01T22:08:17.845Z,14.40
2017-10-01T22:10:44.734Z,14.40
2017-10-01T22:13:11.661Z,14.40
2017-10-01T22:15:39.008Z,14.30
2017-10-01T22:18:06.357Z,14.20
2017-10-01T22:20:33.718Z,14.20
2017-10-01T22:23:01.069Z,14.30
2017-10-01T22:25:28.422Z,14.30
2017-10-01T22:27:55.373Z,14.30
2017-10-01T22:30:22.264Z,14.30
2017-10-01T22:32:49.157Z,14.40
2017-10-01T22:35:16.488Z,14.30
2017-10-01T22:37:44.629Z,14.30
2017-10-01T22:40:11.519Z,14.30
2017-10-01T22:42:38.481Z,14.30
2017-10-01T22:45:05.434Z,14.30
2017-10-01T22:47:32.716Z,14.40
2017-10-01T22:49:59.635Z,14.40
2017-10-01T22:52:27.014Z,14.30
2017-10-01T22:54:53.925Z,14.30
2017-10-01T22:57:20.877Z,14.20
2017-10-01T22:59:47.826Z,14.20
2017-10-01T23:02:14.711Z,14.20
2017-10-01T23:04:41.641Z,14.20
2017-10-01T23:07:08.538Z,14.10
2017-10-01T23:09:35.511Z,14.20
2017-10-01T23:12:02.842Z,14.30
2017-10-01T23:14:29.724Z,14.30
2017-10-01T23:16:57.065Z,14.30
2017-10-01T23:19:23.995Z,14.30
2017-10-01T23:21:50.953Z,14.30
2017-10-01T23:24:17.828Z,14.20
2017-10-01T23:26:44.750Z,14.20
2017-10-01T23:29:11.637Z,14.20
2017-10-01T23:31:38.529Z,14.20
2017-10-01T23:34:05.453Z,14.20
2017-10-01T23:36:32.332Z,14.20
2017-10-01T23:38:59.685Z,14.20
2017-10-01T23:41:26.621Z,14.20
2017-10-01T23:43:53.574Z,14.20
2017-10-01T23:46:20.473Z,14.30
2017-10-01T23:48:47.470Z,14.20
2017-10-01T23:51:14.413Z,14.20
2017-10-01T23:53:41.356Z,14.20
2017-10-01T23:56:08.281Z,14.20
2017-10-01T23:58:35.162Z,14.20
